createdAt,value
2022-09-21T00:02:07.540Z,1.17
2022-09-21T00:04:34.566Z,1.00
2022-09-21T00:07:01.614Z,0.85
2022-09-21T00:09:29.129Z,0.90
2022-09-21T00:11:58.376Z,0.98
2022-09-21T00:14:25.771Z,1.00
2022-09-21T00:16:53.622Z,1.10
2022-09-21T00:19:23.032Z,1.00
2022-09-21T00:21:55.661Z,0.80
2022-09-21T00:24:23.183Z,0.93
2022-09-21T00:26:50.802Z,0.90
2022-09-21T00:29:18.137Z,1.00
2022-09-21T00:31:46.025Z,1.10
2022-09-21T00:34:13.923Z,0.93
2022-09-21T00:36:43.374Z,1.05
2022-09-21T00:39:10.889Z,1.20
2022-09-21T00:41:38.414Z,1.10
2022-09-21T00:44:25.266Z,0.90
2022-09-21T00:46:55.700Z,1.10
2022-09-21T00:49:24.643Z,0.95
2022-09-21T00:51:53.766Z,0.90
2022-09-21T00:54:26.090Z,0.90
2022-09-21T00:56:55.427Z,0.90
2022-09-21T00:59:29.976Z,1.00
2022-09-21T01:01:58.433Z,0.77
2022-09-21T01:04:27.143Z,1.20
2022-09-21T01:06:59.068Z,1.00
2022-09-21T01:09:28.421Z,1.40
2022-09-21T01:12:11.917Z,1.23
2022-09-21T01:15:05.888Z,1.30
2022-09-21T01:17:43.708Z,1.17
2022-09-21T01:20:35.184Z,1.00
2022-09-21T01:23:23.003Z,1.60
2022-09-21T01:26:06.320Z,1.17
2022-09-21T01:28:56.899Z,1.20
2022-09-21T01:31:29.188Z,1.13
2022-09-21T01:34:00.181Z,1.30
2022-09-21T01:36:31.822Z,1.30
2022-09-21T01:39:06.360Z,1.00
2022-09-21T01:41:35.844Z,1.10
2022-09-21T01:44:11.397Z,1.25
2022-09-21T01:46:39.827Z,0.93
2022-09-21T01:49:13.127Z,0.80
2022-09-21T01:51:47.993Z,0.90
2022-09-21T01:54:20.659Z,1.15
2022-09-21T01:56:53.415Z,1.00
2022-09-21T01:59:30.066Z,1.33
2022-09-21T02:02:01.454Z,1.20
2022-09-21T02:04:29.302Z,1.20
2022-09-21T02:06:57.148Z,0.93
2022-09-21T02:09:24.978Z,1.20
2022-09-21T02:11:52.969Z,1.10
2022-09-21T02:14:25.136Z,1.48
2022-09-21T02:17:01.339Z,1.20
2022-09-21T02:19:41.306Z,1.10
2022-09-21T02:22:15.679Z,1.08
2022-09-21T02:24:45.614Z,1.35
2022-09-21T02:27:24.621Z,1.33
2022-09-21T02:30:03.679Z,1.30
2022-09-21T02:32:39.191Z,1.08
2022-09-21T02:35:16.010Z,0.98
2022-09-21T02:37:49.000Z,1.02
2022-09-21T02:40:24.781Z,0.98
2022-09-21T02:42:59.036Z,0.98
2022-09-21T02:45:33.517Z,1.10
2022-09-21T02:48:06.229Z,1.55
2022-09-21T02:50:39.411Z,1.30
2022-09-21T02:53:10.184Z,0.85
2022-09-21T02:55:39.301Z,0.93
2022-09-21T02:58:12.322Z,1.23
2022-09-21T03:00:42.126Z,1.45
2022-09-21T03:03:20.987Z,2.05
2022-09-21T03:05:50.374Z,2.00
2022-09-21T03:08:18.402Z,1.92
2022-09-21T03:10:47.218Z,1.92
2022-09-21T03:13:14.727Z,1.83
2022-09-21T03:15:43.895Z,2.00
2022-09-21T03:18:12.362Z,1.70
2022-09-21T03:20:43.245Z,2.10
2022-09-21T03:23:10.695Z,1.55
2022-09-21T03:25:37.775Z,1.60
2022-09-21T03:28:04.972Z,1.33
2022-09-21T03:30:32.260Z,1.05
2022-09-21T03:33:00.950Z,1.00
2022-09-21T03:35:28.118Z,1.15
2022-09-21T03:37:55.666Z,1.10
2022-09-21T03:40:22.894Z,0.90
2022-09-21T03:42:50.373Z,1.00
2022-09-21T03:45:17.622Z,1.20
2022-09-21T03:47:44.860Z,0.90
2022-09-21T03:50:14.657Z,0.90
2022-09-21T03:52:42.407Z,0.93
2022-09-21T03:55:10.232Z,1.17
2022-09-21T03:57:37.759Z,1.23
2022-09-21T04:00:09.116Z,0.80
2022-09-21T04:02:37.054Z,0.80
2022-09-21T04:05:05.423Z,1.00
2022-09-21T04:07:36.390Z,0.80
2022-09-21T04:10:05.282Z,1.08
2022-09-21T04:12:32.628Z,1.00
2022-09-21T04:14:59.497Z,0.90
2022-09-21T04:17:26.899Z,0.98
2022-09-21T04:19:55.352Z,1.10
2022-09-21T04:22:22.869Z,1.20
2022-09-21T04:24:52.661Z,0.88
2022-09-21T04:27:20.043Z,1.30
2022-09-21T04:29:47.676Z,0.93
2022-09-21T04:32:15.093Z,1.10
2022-09-21T04:34:42.458Z,1.00
2022-09-21T04:37:10.879Z,1.30
2022-09-21T04:39:38.732Z,1.48
2022-09-21T04:42:10.735Z,1.50
2022-09-21T04:44:38.380Z,1.73
2022-09-21T04:47:05.781Z,1.85
2022-09-21T04:49:33.302Z,1.75
2022-09-21T04:52:01.443Z,4.15
2022-09-21T04:54:28.983Z,2.65
2022-09-21T04:56:56.329Z,1.75
2022-09-21T04:59:25.630Z,1.90
2022-09-21T05:01:52.759Z,2.65
2022-09-21T05:04:20.323Z,2.45
2022-09-21T05:06:47.828Z,2.65
2022-09-21T05:09:15.999Z,1.70
2022-09-21T05:11:44.127Z,1.92
2022-09-21T05:14:13.291Z,2.33
2022-09-21T05:16:43.301Z,2.72
2022-09-21T05:19:11.231Z,2.58
2022-09-21T05:21:39.083Z,3.83
2022-09-21T05:24:06.943Z,4.05
2022-09-21T05:26:34.545Z,4.32
2022-09-21T05:29:02.765Z,4.70
2022-09-21T05:31:40.441Z,3.97
2022-09-21T05:34:36.334Z,3.65
2022-09-21T05:37:10.568Z,4.38
2022-09-21T05:39:38.261Z,3.85
2022-09-21T05:42:06.213Z,3.33
2022-09-21T05:44:34.727Z,3.78
2022-09-21T05:47:09.281Z,4.88
2022-09-21T05:49:50.566Z,4.15
2022-09-21T05:52:26.111Z,3.72
2022-09-21T05:55:03.637Z,3.20
2022-09-21T05:57:44.806Z,3.88
2022-09-21T06:00:19.091Z,3.63
2022-09-21T06:03:09.308Z,3.85
2022-09-21T06:05:40.383Z,3.00
2022-09-21T06:08:08.523Z,3.05
2022-09-21T06:10:36.233Z,3.13
2022-09-21T06:13:03.645Z,3.28
2022-09-21T06:15:30.762Z,4.07
2022-09-21T06:17:58.268Z,3.60
2022-09-21T06:20:25.837Z,3.72
2022-09-21T06:23:00.993Z,2.92
2022-09-21T06:25:28.117Z,4.07
2022-09-21T06:27:55.223Z,3.50
2022-09-21T06:30:22.768Z,2.75
2022-09-21T06:32:50.703Z,2.00
2022-09-21T06:35:17.788Z,2.33
2022-09-21T06:37:44.955Z,2.58
2022-09-21T06:40:14.070Z,2.88
2022-09-21T06:42:44.695Z,2.95
2022-09-21T06:45:12.255Z,1.58
2022-09-21T06:47:39.479Z,1.80
2022-09-21T06:50:08.215Z,2.30
2022-09-21T06:52:35.967Z,2.50
2022-09-21T06:55:03.235Z,2.60
2022-09-21T06:57:31.827Z,2.38
2022-09-21T06:59:58.754Z,2.03
2022-09-21T07:02:26.404Z,2.42
2022-09-21T07:04:56.331Z,3.40
2022-09-21T07:07:23.367Z,2.70
2022-09-21T07:10:06.907Z,3.50
2022-09-21T07:12:36.419Z,4.63
2022-09-21T07:15:05.325Z,4.82
2022-09-21T07:17:33.239Z,2.75
2022-09-21T07:20:00.675Z,4.75
2022-09-21T07:22:29.047Z,5.60
2022-09-21T07:24:56.508Z,7.25
2022-09-21T07:27:23.643Z,3.00
2022-09-21T07:29:52.418Z,1.70
2022-09-21T07:32:21.299Z,2.95
2022-09-21T07:34:48.376Z,3.72
2022-09-21T07:37:15.695Z,3.83
2022-09-21T07:39:42.628Z,2.33
2022-09-21T07:42:09.787Z,2.38
2022-09-21T07:44:37.021Z,2.42
2022-09-21T07:47:07.197Z,2.53
2022-09-21T07:49:34.417Z,2.40
2022-09-21T07:52:04.991Z,2.22
2022-09-21T07:54:35.180Z,2.58
2022-09-21T07:57:02.503Z,2.20
2022-09-21T07:59:30.319Z,2.97
2022-09-21T08:01:57.448Z,1.85
2022-09-21T08:04:26.832Z,1.05
2022-09-21T08:06:55.755Z,1.20
2022-09-21T08:09:23.038Z,0.93
2022-09-21T08:11:50.320Z,2.75
2022-09-21T08:14:20.183Z,1.08
2022-09-21T08:16:50.843Z,1.40
2022-09-21T08:19:18.249Z,0.90
2022-09-21T08:21:51.446Z,1.10
2022-09-21T08:24:21.893Z,1.08
2022-09-21T08:26:49.205Z,0.98
2022-09-21T08:29:16.249Z,1.00
2022-09-21T08:31:43.647Z,1.00
2022-09-21T08:34:10.957Z,1.00
2022-09-21T08:36:37.993Z,1.00
2022-09-21T08:39:09.448Z,0.82
2022-09-21T08:41:52.701Z,1.10
2022-09-21T08:44:23.930Z,1.10
2022-09-21T08:46:58.612Z,1.02
2022-09-21T08:49:28.658Z,0.82
2022-09-21T08:52:01.599Z,0.90
2022-09-21T08:54:38.883Z,1.00
2022-09-21T08:57:09.267Z,1.00
2022-09-21T08:59:45.796Z,0.98
2022-09-21T09:02:40.660Z,1.05
2022-09-21T09:05:23.550Z,0.90
2022-09-21T09:08:05.575Z,0.88
2022-09-21T09:10:41.080Z,1.05
2022-09-21T09:13:25.891Z,0.90
2022-09-21T09:16:03.263Z,0.80
2022-09-21T09:18:43.550Z,0.85
2022-09-21T09:21:25.558Z,0.93
2022-09-21T09:24:00.512Z,0.98
2022-09-21T09:26:36.683Z,0.93
2022-09-21T09:29:14.529Z,0.90
2022-09-21T09:31:42.928Z,0.98
2022-09-21T09:34:16.075Z,0.80
2022-09-21T09:36:58.429Z,0.80
2022-09-21T09:39:29.462Z,0.80
2022-09-21T09:42:20.252Z,0.90
2022-09-21T09:45:14.512Z,0.80
2022-09-21T09:47:57.279Z,0.93
2022-09-21T09:50:28.707Z,0.80
2022-09-21T09:53:03.428Z,0.80
2022-09-21T09:55:38.087Z,0.88
2022-09-21T09:58:17.139Z,0.80
2022-09-21T10:00:48.519Z,0.80
2022-09-21T10:03:19.435Z,0.93
2022-09-21T10:05:47.037Z,0.80
2022-09-21T10:08:42.519Z,0.70
2022-09-21T10:11:11.815Z,0.75
2022-09-21T10:13:43.184Z,1.05
2022-09-21T10:16:16.096Z,0.73
2022-09-21T10:18:48.758Z,0.90
2022-09-21T10:21:23.885Z,0.80
2022-09-21T10:23:53.171Z,0.82
2022-09-21T10:26:21.571Z,0.70
2022-09-21T10:29:21.030Z,0.80
2022-09-21T10:31:56.243Z,0.77
2022-09-21T10:34:25.719Z,0.82
2022-09-21T10:36:55.527Z,0.68
2022-09-21T10:39:26.855Z,0.70
2022-09-21T10:41:59.844Z,0.60
2022-09-21T10:44:36.728Z,0.80
2022-09-21T10:47:17.424Z,0.80
2022-09-21T10:49:47.782Z,0.60
2022-09-21T10:52:15.855Z,0.75
2022-09-21T10:54:43.364Z,0.70
2022-09-21T10:57:17.783Z,0.80
2022-09-21T10:59:46.877Z,0.70
2022-09-21T11:02:34.765Z,0.77
2022-09-21T11:05:09.611Z,0.80
2022-09-21T11:07:44.204Z,0.60
2022-09-21T11:10:19.396Z,0.80
2022-09-21T11:13:17.793Z,0.80
2022-09-21T11:15:52.879Z,0.70
2022-09-21T11:18:26.332Z,0.90
2022-09-21T11:20:59.091Z,0.65
2022-09-21T11:23:49.942Z,0.80
2022-09-21T11:26:37.963Z,0.57
2022-09-21T11:29:10.831Z,0.70
2022-09-21T11:31:52.119Z,0.60
2022-09-21T11:34:36.683Z,0.60
2022-09-21T11:37:15.527Z,0.60
2022-09-21T11:39:57.903Z,0.75
2022-09-21T11:42:41.439Z,0.63
2022-09-21T11:45:25.319Z,0.60
2022-09-21T11:48:09.155Z,0.70
2022-09-21T11:51:06.146Z,0.70
2022-09-21T11:53:50.324Z,0.52
2022-09-21T11:56:34.510Z,0.60
2022-09-21T11:59:19.638Z,0.63
2022-09-21T12:02:05.108Z,0.73
2022-09-21T12:04:44.423Z,0.57
2022-09-21T12:07:27.990Z,0.80
2022-09-21T12:10:37.642Z,0.60
2022-09-21T12:13:10.012Z,0.70
2022-09-21T12:15:44.395Z,0.68
2022-09-21T12:18:17.287Z,0.50
2022-09-21T12:20:55.810Z,0.57
2022-09-21T12:23:33.074Z,0.70
2022-09-21T12:26:02.344Z,0.60
2022-09-21T12:28:33.132Z,0.80
2022-09-21T12:31:05.844Z,0.80
2022-09-21T12:33:38.096Z,0.60
2022-09-21T12:36:12.016Z,0.80
2022-09-21T12:38:44.589Z,0.70
2022-09-21T12:41:18.785Z,0.60
2022-09-21T12:43:52.329Z,0.70
2022-09-21T12:46:24.092Z,0.60
2022-09-21T12:48:51.459Z,0.65
2022-09-21T12:51:25.459Z,0.52
2022-09-21T12:53:55.301Z,0.57
2022-09-21T12:56:35.583Z,0.60
2022-09-21T12:59:22.559Z,0.70
2022-09-21T13:01:57.593Z,0.38
2022-09-21T13:04:46.097Z,0.50
2022-09-21T13:07:51.779Z,0.40
2022-09-21T13:10:31.460Z,0.50
2022-09-21T13:13:03.454Z,0.50
2022-09-21T13:15:32.863Z,0.52
2022-09-21T13:18:02.583Z,0.50
2022-09-21T13:20:36.414Z,0.40
2022-09-21T13:23:03.605Z,0.40
2022-09-21T13:25:34.665Z,0.55
2022-09-21T13:28:06.079Z,0.40
2022-09-21T13:30:40.055Z,0.55
2022-09-21T13:33:39.088Z,0.47
2022-09-21T13:36:33.755Z,0.50
2022-09-21T13:39:14.399Z,0.40
2022-09-21T13:42:02.492Z,0.38
2022-09-21T13:44:48.390Z,0.50
2022-09-21T13:47:29.592Z,0.50
2022-09-21T13:50:00.627Z,0.50
2022-09-21T13:52:35.060Z,0.60
2022-09-21T13:55:05.107Z,0.40
2022-09-21T13:57:39.345Z,0.60
2022-09-21T14:00:42.276Z,0.40
2022-09-21T14:03:23.835Z,0.50
2022-09-21T14:05:54.855Z,0.40
2022-09-21T14:08:30.239Z,0.40
2022-09-21T14:11:01.410Z,0.50
2022-09-21T14:14:03.704Z,0.47
2022-09-21T14:16:55.257Z,0.50
2022-09-21T14:20:07.891Z,0.50
2022-09-21T14:22:39.371Z,0.40
2022-09-21T14:25:29.917Z,0.50
2022-09-21T14:28:05.045Z,0.40
2022-09-21T14:30:36.696Z,0.60
2022-09-21T14:33:20.539Z,0.50
2022-09-21T14:35:48.860Z,0.47
2022-09-21T14:38:21.019Z,0.60
2022-09-21T14:40:50.505Z,0.47
2022-09-21T14:43:21.859Z,0.50
2022-09-21T14:46:18.621Z,0.40
2022-09-21T14:48:59.364Z,0.70
2022-09-21T14:51:36.580Z,0.50
2022-09-21T14:54:15.860Z,0.30
2022-09-21T14:56:59.720Z,0.40
2022-09-21T14:59:50.493Z,0.57
2022-09-21T15:02:22.244Z,0.88
2022-09-21T15:05:14.750Z,0.70
2022-09-21T15:07:49.435Z,0.65
2022-09-21T15:10:27.107Z,1.00
2022-09-21T15:12:59.055Z,1.08
2022-09-21T15:15:40.458Z,1.10
2022-09-21T15:18:16.583Z,1.08
2022-09-21T15:20:46.584Z,1.00
2022-09-21T15:23:20.104Z,1.25
2022-09-21T15:25:57.575Z,0.60
2022-09-21T15:28:26.768Z,0.47
2022-09-21T15:30:58.335Z,0.60
2022-09-21T15:33:25.477Z,0.60
2022-09-21T15:35:54.711Z,0.50
2022-09-21T15:38:29.618Z,0.50
2022-09-21T15:41:03.418Z,0.50
2022-09-21T15:43:32.422Z,0.50
2022-09-21T15:46:02.224Z,0.50
2022-09-21T15:48:31.937Z,0.50
2022-09-21T15:51:08.202Z,0.68
2022-09-21T15:53:40.385Z,0.60
2022-09-21T15:56:10.089Z,0.50
2022-09-21T15:58:39.839Z,0.70
2022-09-21T16:01:13.674Z,0.80
2022-09-21T16:03:42.442Z,2.85
2022-09-21T16:06:27.667Z,2.70
2022-09-21T16:08:56.530Z,3.00
2022-09-21T16:11:34.605Z,1.30
2022-09-21T16:14:09.125Z,1.02
2022-09-21T16:17:20.822Z,0.90
2022-09-21T16:20:20.688Z,0.77
2022-09-21T16:22:52.027Z,0.70
2022-09-21T16:25:32.784Z,0.90
2022-09-21T16:28:02.065Z,0.68
2022-09-21T16:30:48.076Z,0.80
2022-09-21T16:33:51.862Z,3.60
2022-09-21T16:36:44.493Z,2.08
2022-09-21T16:39:17.609Z,1.90
2022-09-21T16:41:51.867Z,1.08
2022-09-21T16:44:21.059Z,0.85
2022-09-21T16:46:52.083Z,0.70
2022-09-21T16:49:20.855Z,1.02
2022-09-21T16:51:49.280Z,0.70
2022-09-21T16:54:19.788Z,1.10
2022-09-21T16:56:47.351Z,1.10
2022-09-21T16:59:16.503Z,1.17
2022-09-21T17:01:44.050Z,0.70
2022-09-21T17:04:11.541Z,0.50
2022-09-21T17:06:38.631Z,0.70
2022-09-21T17:09:20.659Z,1.05
2022-09-21T17:11:51.616Z,0.90
2022-09-21T17:14:20.013Z,0.88
2022-09-21T17:16:50.724Z,0.60
2022-09-21T17:19:18.658Z,0.60
2022-09-21T17:21:46.428Z,0.85
2022-09-21T17:24:32.776Z,0.77
2022-09-21T17:27:04.556Z,0.70
2022-09-21T17:29:32.471Z,0.73
2022-09-21T17:31:59.478Z,0.80
2022-09-21T17:34:28.841Z,0.70
2022-09-21T17:36:56.718Z,0.75
2022-09-21T17:39:24.795Z,0.90
2022-09-21T17:41:56.013Z,0.90
2022-09-21T17:44:48.178Z,1.90
2022-09-21T17:47:20.629Z,1.40
2022-09-21T17:49:48.473Z,1.60
2022-09-21T17:52:18.096Z,1.13
2022-09-21T17:54:45.919Z,1.05
2022-09-21T17:57:26.868Z,1.10
2022-09-21T18:00:02.261Z,1.48
2022-09-21T18:02:30.128Z,1.50
2022-09-21T18:05:02.397Z,1.30
2022-09-21T18:07:30.246Z,0.80
2022-09-21T18:09:58.867Z,1.10
2022-09-21T18:12:56.300Z,1.40
2022-09-21T18:15:34.312Z,1.10
2022-09-21T18:18:13.708Z,0.80
2022-09-21T18:20:51.530Z,1.42
2022-09-21T18:23:25.936Z,0.90
2022-09-21T18:25:56.779Z,1.23
2022-09-21T18:28:39.492Z,1.60
2022-09-21T18:31:28.451Z,1.10
2022-09-21T18:34:06.604Z,1.60
2022-09-21T18:36:40.810Z,1.90
2022-09-21T18:39:21.436Z,2.00
2022-09-21T18:42:04.800Z,1.92
2022-09-21T18:44:37.988Z,2.28
2022-09-21T18:47:11.727Z,2.25
2022-09-21T18:50:00.855Z,2.95
2022-09-21T18:52:42.412Z,2.00
2022-09-21T18:55:22.934Z,1.40
2022-09-21T18:57:50.640Z,1.60
2022-09-21T19:00:19.538Z,1.58
2022-09-21T19:03:12.827Z,1.80
2022-09-21T19:05:39.672Z,2.03
2022-09-21T19:08:15.047Z,1.30
2022-09-21T19:10:47.908Z,1.67
2022-09-21T19:13:34.354Z,1.80
2022-09-21T19:16:12.047Z,1.98
2022-09-21T19:18:47.342Z,2.20
2022-09-21T19:21:23.598Z,1.83
2022-09-21T19:24:03.399Z,2.47
2022-09-21T19:26:39.292Z,1.35
2022-09-21T19:31:50.170Z,1.95
2022-09-21T19:34:20.195Z,1.98
2022-09-21T19:36:47.834Z,1.65
2022-09-21T19:39:17.326Z,2.22
2022-09-21T19:41:55.131Z,1.67
2022-09-21T19:44:50.986Z,1.90
2022-09-21T19:47:27.996Z,2.13
2022-09-21T19:50:03.046Z,2.10
2022-09-21T19:52:34.124Z,1.93
2022-09-21T19:55:02.238Z,1.90
2022-09-21T19:57:31.174Z,2.70
2022-09-21T19:59:58.595Z,4.03
2022-09-21T20:02:30.001Z,4.60
2022-09-21T20:05:03.204Z,3.38
2022-09-21T20:07:39.771Z,2.83
2022-09-21T20:10:44.549Z,3.15
2022-09-21T20:13:24.498Z,3.20
2022-09-21T20:15:59.415Z,3.78
2022-09-21T20:18:37.883Z,3.35
2022-09-21T20:21:12.943Z,3.08
2022-09-21T20:23:41.125Z,2.17
2022-09-21T20:26:20.011Z,2.72
2022-09-21T20:28:47.855Z,1.83
2022-09-21T20:31:15.966Z,1.92
2022-09-21T20:33:42.985Z,2.30
2022-09-21T20:36:11.462Z,3.28
2022-09-21T20:38:38.554Z,3.15
2022-09-21T20:41:11.642Z,2.92
2022-09-21T20:43:39.218Z,3.00
2022-09-21T20:46:06.857Z,2.80
2022-09-21T20:48:34.680Z,2.50
2022-09-21T20:51:02.871Z,2.63
2022-09-21T20:53:32.084Z,1.83
2022-09-21T20:56:00.148Z,2.15
2022-09-21T20:58:28.702Z,1.83
2022-09-21T21:00:59.027Z,1.75
2022-09-21T21:03:26.372Z,1.50
2022-09-21T21:05:54.407Z,1.50
2022-09-21T21:08:21.407Z,1.70
2022-09-21T21:10:50.781Z,1.50
2022-09-21T21:13:18.221Z,1.52
2022-09-21T21:15:46.038Z,1.50
2022-09-21T21:18:13.750Z,1.42
2022-09-21T21:20:41.238Z,1.45
2022-09-21T21:23:08.482Z,1.30
2022-09-21T21:25:35.659Z,1.50
2022-09-21T21:28:04.677Z,1.50
2022-09-21T21:30:31.854Z,1.30
2022-09-21T21:32:58.848Z,1.30
2022-09-21T21:35:26.239Z,1.20
2022-09-21T21:37:54.078Z,1.30
2022-09-21T21:40:21.249Z,1.40
2022-09-21T21:42:48.798Z,1.20
2022-09-21T21:45:17.531Z,1.40
2022-09-21T21:47:45.129Z,1.30
2022-09-21T21:50:12.312Z,1.20
2022-09-21T21:52:40.121Z,1.20
2022-09-21T21:55:08.243Z,1.50
2022-09-21T21:57:35.833Z,1.33
2022-09-21T22:00:04.667Z,1.13
2022-09-21T22:02:34.488Z,1.08
2022-09-21T22:05:02.315Z,1.48
2022-09-21T22:07:29.971Z,1.10
2022-09-21T22:09:57.014Z,1.10
2022-09-21T22:12:24.035Z,1.40
2022-09-21T22:14:51.477Z,1.35
2022-09-21T22:17:18.519Z,1.27
2022-09-21T22:19:47.978Z,1.30
2022-09-21T22:22:15.015Z,1.77
2022-09-21T22:24:43.493Z,1.50
2022-09-21T22:27:10.864Z,1.63
2022-09-21T22:29:38.128Z,1.65
2022-09-21T22:32:05.642Z,2.30
2022-09-21T22:34:33.169Z,1.67
2022-09-21T22:37:04.164Z,1.80
2022-09-21T22:39:31.169Z,1.67
2022-09-21T22:41:58.477Z,1.30
2022-09-21T22:44:25.670Z,2.03
2022-09-21T22:46:52.765Z,1.52
2022-09-21T22:49:20.405Z,1.73
2022-09-21T22:51:47.717Z,1.35
2022-09-21T22:54:18.377Z,1.42
2022-09-21T22:56:45.605Z,1.35
2022-09-21T22:59:13.032Z,1.33
2022-09-21T23:01:41.398Z,1.20
2022-09-21T23:04:10.856Z,1.25
2022-09-21T23:06:40.433Z,1.40
2022-09-21T23:09:09.250Z,1.20
2022-09-21T23:11:40.927Z,1.33
2022-09-21T23:14:08.541Z,1.10
2022-09-21T23:16:35.852Z,1.20
2022-09-21T23:19:03.212Z,1.20
2022-09-21T23:21:31.202Z,1.17
2022-09-21T23:24:00.311Z,1.38
2022-09-21T23:26:29.179Z,1.40
2022-09-21T23:29:00.130Z,1.27
2022-09-21T23:31:28.872Z,1.27
2022-09-21T23:33:57.638Z,0.95
2022-09-21T23:36:26.445Z,1.13
2022-09-21T23:38:55.342Z,1.60
2022-09-21T23:41:26.242Z,1.30
2022-09-21T23:43:53.788Z,1.60
2022-09-21T23:46:26.259Z,1.55
2022-09-21T23:48:54.898Z,1.58
2022-09-21T23:51:23.363Z,1.23
2022-09-21T23:53:50.616Z,1.17
2022-09-21T23:56:20.778Z,1.27
2022-09-21T23:58:48.995Z,1.40
